sensor_id;sensor_type;location;lat;lon;timestamp;temperature;humidity
47813;DHT22;34221;45.296;9.516;2023-02-08T00:00:11;2.40;69.90
47813;DHT22;34221;45.296;9.516;2023-02-08T00:00:26;2.40;69.90
47813;DHT22;34221;45.296;9.516;2023-02-08T00:00:41;2.40;69.90
47813;DHT22;34221;45.296;9.516;2023-02-08T00:00:56;2.40;70.00
47813;DHT22;34221;45.296;9.516;2023-02-08T00:01:12;2.40;70.00
47813;DHT22;34221;45.296;9.516;2023-02-08T00:01:29;2.40;69.90
47813;DHT22;34221;45.296;9.516;2023-02-08T00:01:44;2.40;70.00
47813;DHT22;34221;45.296;9.516;2023-02-08T00:01:59;2.40;70.00
47813;DHT22;34221;45.296;9.516;2023-02-08T00:02:14;2.40;70.00
47813;DHT22;34221;45.296;9.516;2023-02-08T00:02:29;2.40;70.10
47813;DHT22;34221;45.296;9.516;2023-02-08T00:02:44;2.40;70.70
47813;DHT22;34221;45.296;9.516;2023-02-08T00:02:59;2.40;70.10
47813;DHT22;34221;45.296;9.516;2023-02-08T00:03:14;2.40;70.10
47813;DHT22;34221;45.296;9.516;2023-02-08T00:03:29;2.40;70.10
47813;DHT22;34221;45.296;9.516;2023-02-08T00:03:44;2.40;70.10
47813;DHT22;34221;45.296;9.516;2023-02-08T00:03:59;2.30;70.70
47813;DHT22;34221;45.296;9.516;2023-02-08T00:04:14;2.30;70.20
47813;DHT22;34221;45.296;9.516;2023-02-08T00:04:29;2.30;70.30
47813;DHT22;34221;45.296;9.516;2023-02-08T00:04:44;2.30;70.30
47813;DHT22;34221;45.296;9.516;2023-02-08T00:04:59;2.30;70.40
47813;DHT22;34221;45.296;9.516;2023-02-08T00:05:14;2.30;70.40
47813;DHT22;34221;45.296;9.516;2023-02-08T00:05:29;2.30;70.50
47813;DHT22;34221;45.296;9.516;2023-02-08T00:05:44;2.30;70.50
47813;DHT22;34221;45.296;9.516;2023-02-08T00:05:59;2.30;70.60
47813;DHT22;34221;45.296;9.516;2023-02-08T00:06:14;2.30;70.60
47813;DHT22;34221;45.296;9.516;2023-02-08T00:06:30;2.30;70.70
47813;DHT22;34221;45.296;9.516;2023-02-08T00:06:45;2.30;70.80
47813;DHT22;34221;45.296;9.516;2023-02-08T00:06:59;2.30;70.80
47813;DHT22;34221;45.296;9.516;2023-02-08T00:07:14;2.30;70.80
47813;DHT22;34221;45.296;9.516;2023-02-08T00:07:29;2.30;70.80
47813;DHT22;34221;45.296;9.516;2023-02-08T00:07:44;2.30;70.80
47813;DHT22;34221;45.296;9.516;2023-02-08T00:07:59;2.30;70.80
47813;DHT22;34221;45.296;9.516;2023-02-08T00:08:15;2.30;71.40
47813;DHT22;34221;45.296;9.516;2023-02-08T00:08:31;2.30;70.70
47813;DHT22;34221;45.296;9.516;2023-02-08T00:08:46;2.30;70.70
47813;DHT22;34221;45.296;9.516;2023-02-08T00:09:01;2.30;70.70
47813;DHT22;34221;45.296;9.516;2023-02-08T00:09:17;2.30;70.70
47813;DHT22;34221;45.296;9.516;2023-02-08T00:09:32;2.30;70.60
47813;DHT22;34221;45.296;9.516;2023-02-08T00:09:47;2.30;70.60
47813;DHT22;34221;45.296;9.516;2023-02-08T00:10:03;2.30;70.70
47813;DHT22;34221;45.296;9.516;2023-02-08T00:10:20;2.30;70.80
47813;DHT22;34221;45.296;9.516;2023-02-08T00:10:35;2.20;70.80
47813;DHT22;34221;45.296;9.516;2023-02-08T00:11:10;2.30;70.80
47813;DHT22;34221;45.296;9.516;2023-02-08T00:11:26;2.20;71.00
47813;DHT22;34221;45.296;9.516;2023-02-08T00:11:41;2.20;71.00
47813;DHT22;34221;45.296;9.516;2023-02-08T00:11:56;2.20;71.00
47813;DHT22;34221;45.296;9.516;2023-02-08T00:12:10;2.20;71.00
47813;DHT22;34221;45.296;9.516;2023-02-08T00:12:25;2.20;71.10
47813;DHT22;34221;45.296;9.516;2023-02-08T00:12:41;2.20;71.20
47813;DHT22;34221;45.296;9.516;2023-02-08T00:12:56;2.10;71.20
47813;DHT22;34221;45.296;9.516;2023-02-08T00:13:11;2.20;71.30
47813;DHT22;34221;45.296;9.516;2023-02-08T00:13:26;2.10;71.40
47813;DHT22;34221;45.296;9.516;2023-02-08T00:13:41;2.10;71.40
47813;DHT22;34221;45.296;9.516;2023-02-08T00:13:56;2.10;71.50
47813;DHT22;34221;45.296;9.516;2023-02-08T00:14:11;2.10;71.50
47813;DHT22;34221;45.296;9.516;2023-02-08T00:14:26;2.10;71.60
47813;DHT22;34221;45.296;9.516;2023-02-08T00:14:41;2.10;71.60
47813;DHT22;34221;45.296;9.516;2023-02-08T00:14:56;2.10;71.70
47813;DHT22;34221;45.296;9.516;2023-02-08T00:15:11;2.10;71.70
47813;DHT22;34221;45.296;9.516;2023-02-08T00:15:26;2.10;71.80
47813;DHT22;34221;45.296;9.516;2023-02-08T00:15:42;2.10;71.80
47813;DHT22;34221;45.296;9.516;2023-02-08T00:15:58;2.10;71.90
47813;DHT22;34221;45.296;9.516;2023-02-08T00:16:14;2.10;71.90
47813;DHT22;34221;45.296;9.516;2023-02-08T00:16:29;2.10;72.00
47813;DHT22;34221;45.296;9.516;2023-02-08T00:16:44;2.10;72.00
47813;DHT22;34221;45.296;9.516;2023-02-08T00:16:59;2.00;72.00
47813;DHT22;34221;45.296;9.516;2023-02-08T00:17:14;2.10;72.10
47813;DHT22;34221;45.296;9.516;2023-02-08T00:17:29;2.00;72.10
47813;DHT22;34221;45.296;9.516;2023-02-08T00:17:44;2.00;72.10
47813;DHT22;34221;45.296;9.516;2023-02-08T00:17:59;2.00;72.20
47813;DHT22;34221;45.296;9.516;2023-02-08T00:18:14;2.00;72.20
47813;DHT22;34221;45.296;9.516;2023-02-08T00:18:29;2.00;72.20
47813;DHT22;34221;45.296;9.516;2023-02-08T00:18:44;2.00;72.20
47813;DHT22;34221;45.296;9.516;2023-02-08T00:18:59;2.00;72.20
47813;DHT22;34221;45.296;9.516;2023-02-08T00:19:14;1.90;72.20
47813;DHT22;34221;45.296;9.516;2023-02-08T00:19:29;1.90;72.30
47813;DHT22;34221;45.296;9.516;2023-02-08T00:19:44;2.00;72.40
47813;DHT22;34221;45.296;9.516;2023-02-08T00:19:58;2.00;72.50
47813;DHT22;34221;45.296;9.516;2023-02-08T00:20:14;2.00;72.50
47813;DHT22;34221;45.296;9.516;2023-02-08T00:20:29;1.90;72.30
47813;DHT22;34221;45.296;9.516;2023-02-08T00:20:44;2.00;72.40
47813;DHT22;34221;45.296;9.516;2023-02-08T00:20:59;2.00;72.40
47813;DHT22;34221;45.296;9.516;2023-02-08T00:21:16;2.00;72.50
47813;DHT22;34221;45.296;9.516;2023-02-08T00:21:31;1.90;72.40
47813;DHT22;34221;45.296;9.516;2023-02-08T00:21:46;1.90;72.50
47813;DHT22;34221;45.296;9.516;2023-02-08T00:22:01;1.90;72.60
47813;DHT22;34221;45.296;9.516;2023-02-08T00:22:16;1.90;72.60
47813;DHT22;34221;45.296;9.516;2023-02-08T00:22:32;1.90;72.70
47813;DHT22;34221;45.296;9.516;2023-02-08T00:22:47;1.90;72.70
47813;DHT22;34221;45.296;9.516;2023-02-08T00:23:02;1.90;72.80
47813;DHT22;34221;45.296;9.516;2023-02-08T00:23:17;1.90;72.80
47813;DHT22;34221;45.296;9.516;2023-02-08T00:23:32;1.90;73.50
47813;DHT22;34221;45.296;9.516;2023-02-08T00:23:47;1.90;72.90
47813;DHT22;34221;45.296;9.516;2023-02-08T00:24:02;1.90;72.90
47813;DHT22;34221;45.296;9.516;2023-02-08T00:24:17;1.90;72.90
47813;DHT22;34221;45.296;9.516;2023-02-08T00:24:32;1.90;73.00
47813;DHT22;34221;45.296;9.516;2023-02-08T00:24:48;1.90;73.00
47813;DHT22;34221;45.296;9.516;2023-02-08T00:25:05;1.90;73.00
47813;DHT22;34221;45.296;9.516;2023-02-08T00:25:20;1.90;73.60
47813;DHT22;34221;45.296;9.516;2023-02-08T00:25:35;1.90;73.00
47813;DHT22;34221;45.296;9.516;2023-02-08T00:25:50;1.90;73.00
47813;DHT22;34221;45.296;9.516;2023-02-08T00:26:06;1.90;73.00
47813;DHT22;34221;45.296;9.516;2023-02-08T00:26:21;1.90;72.90
47813;DHT22;34221;45.296;9.516;2023-02-08T00:26:37;1.90;72.90
47813;DHT22;34221;45.296;9.516;2023-02-08T00:26:52;1.90;72.90
47813;DHT22;34221;45.296;9.516;2023-02-08T00:27:07;1.90;72.90
47813;DHT22;34221;45.296;9.516;2023-02-08T00:27:22;1.90;72.90
47813;DHT22;34221;45.296;9.516;2023-02-08T00:27:37;1.90;72.80
47813;DHT22;34221;45.296;9.516;2023-02-08T00:27:52;1.90;72.80
47813;DHT22;34221;45.296;9.516;2023-02-08T00:28:11;1.90;72.90
47813;DHT22;34221;45.296;9.516;2023-02-08T00:28:29;1.90;72.90
47813;DHT22;34221;45.296;9.516;2023-02-08T00:28:43;1.90;72.90
47813;DHT22;34221;45.296;9.516;2023-02-08T00:28:58;1.90;72.90
47813;DHT22;34221;45.296;9.516;2023-02-08T00:29:13;1.90;72.90
47813;DHT22;34221;45.296;9.516;2023-02-08T00:29:28;1.90;72.90
47813;DHT22;34221;45.296;9.516;2023-02-08T00:29:43;1.90;72.90
47813;DHT22;34221;45.296;9.516;2023-02-08T00:29:58;1.90;72.90
47813;DHT22;34221;45.296;9.516;2023-02-08T00:30:13;1.90;72.90
47813;DHT22;34221;45.296;9.516;2023-02-08T00:30:28;1.90;72.90
47813;DHT22;34221;45.296;9.516;2023-02-08T00:30:43;1.90;72.90
47813;DHT22;34221;45.296;9.516;2023-02-08T00:30:58;1.90;73.00
47813;DHT22;34221;45.296;9.516;2023-02-08T00:31:13;1.90;73.00
47813;DHT22;34221;45.296;9.516;2023-02-08T00:31:29;1.90;73.00
47813;DHT22;34221;45.296;9.516;2023-02-08T00:31:44;1.90;73.10
47813;DHT22;34221;45.296;9.516;2023-02-08T00:31:59;1.90;73.10
47813;DHT22;34221;45.296;9.516;2023-02-08T00:32:14;1.90;73.10
47813;DHT22;34221;45.296;9.516;2023-02-08T00:32:29;1.90;73.10
47813;DHT22;34221;45.296;9.516;2023-02-08T00:32:44;1.90;73.10
47813;DHT22;34221;45.296;9.516;2023-02-08T00:33:00;1.90;73.20
47813;DHT22;34221;45.296;9.516;2023-02-08T00:33:15;1.90;73.20
47813;DHT22;34221;45.296;9.516;2023-02-08T00:33:35;1.90;73.10
47813;DHT22;34221;45.296;9.516;2023-02-08T00:33:50;1.90;73.20
47813;DHT22;34221;45.296;9.516;2023-02-08T00:34:06;1.90;73.20
47813;DHT22;34221;45.296;9.516;2023-02-08T00:34:21;1.90;73.30
47813;DHT22;34221;45.296;9.516;2023-02-08T00:34:36;1.90;73.20
47813;DHT22;34221;45.296;9.516;2023-02-08T00:34:52;1.90;73.20
47813;DHT22;34221;45.296;9.516;2023-02-08T00:35:07;1.90;73.20
47813;DHT22;34221;45.296;9.516;2023-02-08T00:35:22;1.90;73.20
47813;DHT22;34221;45.296;9.516;2023-02-08T00:35:37;1.90;73.30
47813;DHT22;34221;45.296;9.516;2023-02-08T00:35:58;1.90;73.30
47813;DHT22;34221;45.296;9.516;2023-02-08T00:36:13;1.90;73.30
47813;DHT22;34221;45.296;9.516;2023-02-08T00:36:29;1.80;73.40
47813;DHT22;34221;45.296;9.516;2023-02-08T00:36:44;1.80;73.40
47813;DHT22;34221;45.296;9.516;2023-02-08T00:37:00;1.80;73.40
47813;DHT22;34221;45.296;9.516;2023-02-08T00:37:15;1.80;73.40
47813;DHT22;34221;45.296;9.516;2023-02-08T00:37:30;1.80;73.40
47813;DHT22;34221;45.296;9.516;2023-02-08T00:37:45;1.80;73.40
47813;DHT22;34221;45.296;9.516;2023-02-08T00:38:00;1.80;73.40
47813;DHT22;34221;45.296;9.516;2023-02-08T00:38:15;1.90;73.40
47813;DHT22;34221;45.296;9.516;2023-02-08T00:38:31;1.80;73.30
47813;DHT22;34221;45.296;9.516;2023-02-08T00:38:46;1.80;73.30
47813;DHT22;34221;45.296;9.516;2023-02-08T00:39:02;1.80;73.20
47813;DHT22;34221;45.296;9.516;2023-02-08T00:39:17;1.80;73.20
47813;DHT22;34221;45.296;9.516;2023-02-08T00:39:32;1.80;73.20
47813;DHT22;34221;45.296;9.516;2023-02-08T00:39:47;1.90;73.30
47813;DHT22;34221;45.296;9.516;2023-02-08T00:40:02;1.90;73.20
47813;DHT22;34221;45.296;9.516;2023-02-08T00:40:19;1.80;73.20
47813;DHT22;34221;45.296;9.516;2023-02-08T00:40:34;1.80;73.20
47813;DHT22;34221;45.296;9.516;2023-02-08T00:40:49;1.80;73.20
47813;DHT22;34221;45.296;9.516;2023-02-08T00:41:05;1.80;73.30
47813;DHT22;34221;45.296;9.516;2023-02-08T00:41:20;1.80;73.30
47813;DHT22;34221;45.296;9.516;2023-02-08T00:41:35;1.80;73.30
47813;DHT22;34221;45.296;9.516;2023-02-08T00:41:50;1.80;73.40
47813;DHT22;34221;45.296;9.516;2023-02-08T00:42:05;1.80;73.30
47813;DHT22;34221;45.296;9.516;2023-02-08T00:42:20;1.80;73.30
47813;DHT22;34221;45.296;9.516;2023-02-08T00:42:35;1.80;73.30
47813;DHT22;34221;45.296;9.516;2023-02-08T00:42:50;1.80;73.30
47813;DHT22;34221;45.296;9.516;2023-02-08T00:43:05;1.80;73.20
47813;DHT22;34221;45.296;9.516;2023-02-08T00:43:20;1.80;73.20
47813;DHT22;34221;45.296;9.516;2023-02-08T00:43:35;1.80;73.10
47813;DHT22;34221;45.296;9.516;2023-02-08T00:43:50;1.80;73.20
47813;DHT22;34221;45.296;9.516;2023-02-08T00:44:05;1.80;73.20
47813;DHT22;34221;45.296;9.516;2023-02-08T00:44:20;1.80;73.20
47813;DHT22;34221;45.296;9.516;2023-02-08T00:44:35;1.80;73.20
47813;DHT22;34221;45.296;9.516;2023-02-08T00:44:50;1.80;73.30
47813;DHT22;34221;45.296;9.516;2023-02-08T00:45:05;1.80;73.30
47813;DHT22;34221;45.296;9.516;2023-02-08T00:45:20;1.80;73.30
47813;DHT22;34221;45.296;9.516;2023-02-08T00:45:35;1.80;73.40
47813;DHT22;34221;45.296;9.516;2023-02-08T00:45:57;1.80;73.40
47813;DHT22;34221;45.296;9.516;2023-02-08T00:46:13;1.80;73.40
47813;DHT22;34221;45.296;9.516;2023-02-08T00:46:28;1.80;73.40
47813;DHT22;34221;45.296;9.516;2023-02-08T00:46:43;1.80;73.40
47813;DHT22;34221;45.296;9.516;2023-02-08T00:46:58;1.80;74.00
47813;DHT22;34221;45.296;9.516;2023-02-08T00:47:13;1.80;73.40
47813;DHT22;34221;45.296;9.516;2023-02-08T00:47:28;1.80;73.40
47813;DHT22;34221;45.296;9.516;2023-02-08T00:47:43;1.80;73.40
47813;DHT22;34221;45.296;9.516;2023-02-08T00:47:59;1.80;73.40
47813;DHT22;34221;45.296;9.516;2023-02-08T00:48:13;1.80;73.40
47813;DHT22;34221;45.296;9.516;2023-02-08T00:48:29;1.80;73.40
47813;DHT22;34221;45.296;9.516;2023-02-08T00:48:46;1.80;73.50
47813;DHT22;34221;45.296;9.516;2023-02-08T00:49:01;1.80;73.50
47813;DHT22;34221;45.296;9.516;2023-02-08T00:49:16;1.80;73.60
47813;DHT22;34221;45.296;9.516;2023-02-08T00:49:32;1.70;73.50
47813;DHT22;34221;45.296;9.516;2023-02-08T00:49:47;1.80;73.60
47813;DHT22;34221;45.296;9.516;2023-02-08T00:50:03;1.80;73.60
47813;DHT22;34221;45.296;9.516;2023-02-08T00:50:20;1.80;73.60
47813;DHT22;34221;45.296;9.516;2023-02-08T00:50:35;1.80;73.60
47813;DHT22;34221;45.296;9.516;2023-02-08T00:51:02;1.70;73.60
47813;DHT22;34221;45.296;9.516;2023-02-08T00:51:19;1.70;73.70
47813;DHT22;34221;45.296;9.516;2023-02-08T00:51:37;1.70;73.70
47813;DHT22;34221;45.296;9.516;2023-02-08T00:51:52;1.70;73.80
47813;DHT22;34221;45.296;9.516;2023-02-08T00:52:07;1.70;73.70
47813;DHT22;34221;45.296;9.516;2023-02-08T00:52:22;1.70;73.70
47813;DHT22;34221;45.296;9.516;2023-02-08T00:52:37;1.70;73.70
47813;DHT22;34221;45.296;9.516;2023-02-08T00:52:52;1.70;73.80
47813;DHT22;34221;45.296;9.516;2023-02-08T00:53:07;1.70;73.80
47813;DHT22;34221;45.296;9.516;2023-02-08T00:53:22;1.70;73.80
47813;DHT22;34221;45.296;9.516;2023-02-08T00:53:38;1.70;73.90
47813;DHT22;34221;45.296;9.516;2023-02-08T00:53:54;1.70;73.90
47813;DHT22;34221;45.296;9.516;2023-02-08T00:54:17;1.70;74.00
47813;DHT22;34221;45.296;9.516;2023-02-08T00:54:33;1.80;74.20
47813;DHT22;34221;45.296;9.516;2023-02-08T00:54:48;1.70;74.30
47813;DHT22;34221;45.296;9.516;2023-02-08T00:55:04;1.80;75.40
47813;DHT22;34221;45.296;9.516;2023-02-08T00:55:19;1.80;75.70
47813;DHT22;34221;45.296;9.516;2023-02-08T00:55:34;1.80;75.50
47813;DHT22;34221;45.296;9.516;2023-02-08T00:55:51;1.80;75.30
47813;DHT22;34221;45.296;9.516;2023-02-08T00:56:08;1.70;74.10
47813;DHT22;34221;45.296;9.516;2023-02-08T00:56:23;1.70;74.10
47813;DHT22;34221;45.296;9.516;2023-02-08T00:56:39;1.70;74.10
47813;DHT22;34221;45.296;9.516;2023-02-08T00:56:54;1.70;74.20
47813;DHT22;34221;45.296;9.516;2023-02-08T00:57:09;1.70;74.20
47813;DHT22;34221;45.296;9.516;2023-02-08T00:57:24;1.70;74.20
47813;DHT22;34221;45.296;9.516;2023-02-08T00:57:39;1.70;74.10
47813;DHT22;34221;45.296;9.516;2023-02-08T00:57:54;1.70;74.70
47813;DHT22;34221;45.296;9.516;2023-02-08T00:58:09;1.70;74.20
47813;DHT22;34221;45.296;9.516;2023-02-08T00:58:25;1.70;74.20
47813;DHT22;34221;45.296;9.516;2023-02-08T00:58:41;1.70;74.20
47813;DHT22;34221;45.296;9.516;2023-02-08T00:58:57;1.70;74.30
47813;DHT22;34221;45.296;9.516;2023-02-08T00:59:12;1.70;74.20
47813;DHT22;34221;45.296;9.516;2023-02-08T00:59:27;1.70;74.10
47813;DHT22;34221;45.296;9.516;2023-02-08T00:59:42;1.70;74.10
47813;DHT22;34221;45.296;9.516;2023-02-08T00:59:57;1.70;74.00
47813;DHT22;34221;45.296;9.516;2023-02-08T01:00:12;1.70;74.00
47813;DHT22;34221;45.296;9.516;2023-02-08T01:00:27;1.70;74.00
47813;DHT22;34221;45.296;9.516;2023-02-08T01:00:43;1.70;74.00
47813;DHT22;34221;45.296;9.516;2023-02-08T01:00:58;1.70;74.00
47813;DHT22;34221;45.296;9.516;2023-02-08T01:01:13;1.70;74.00
47813;DHT22;34221;45.296;9.516;2023-02-08T01:01:28;1.70;74.00
47813;DHT22;34221;45.296;9.516;2023-02-08T01:01:43;1.60;74.00
47813;DHT22;34221;45.296;9.516;2023-02-08T01:01:58;1.70;74.10
47813;DHT22;34221;45.296;9.516;2023-02-08T01:02:13;1.70;74.10
47813;DHT22;34221;45.296;9.516;2023-02-08T01:02:28;1.70;74.20
47813;DHT22;34221;45.296;9.516;2023-02-08T01:02:43;1.70;74.20
47813;DHT22;34221;45.296;9.516;2023-02-08T01:02:59;1.70;74.20
47813;DHT22;34221;45.296;9.516;2023-02-08T01:03:14;1.70;74.20
47813;DHT22;34221;45.296;9.516;2023-02-08T01:03:28;1.70;74.20
47813;DHT22;34221;45.296;9.516;2023-02-08T01:03:43;1.70;74.20
47813;DHT22;34221;45.296;9.516;2023-02-08T01:03:59;1.60;74.20
47813;DHT22;34221;45.296;9.516;2023-02-08T01:04:14;1.70;74.30
47813;DHT22;34221;45.296;9.516;2023-02-08T01:04:29;1.60;74.20
47813;DHT22;34221;45.296;9.516;2023-02-08T01:04:44;1.60;74.20
47813;DHT22;34221;45.296;9.516;2023-02-08T01:05:00;1.60;74.30
47813;DHT22;34221;45.296;9.516;2023-02-08T01:05:15;1.60;74.30
47813;DHT22;34221;45.296;9.516;2023-02-08T01:05:30;1.60;74.30
47813;DHT22;34221;45.296;9.516;2023-02-08T01:05:45;1.60;74.30
47813;DHT22;34221;45.296;9.516;2023-02-08T01:06:05;1.60;74.40
47813;DHT22;34221;45.296;9.516;2023-02-08T01:06:21;1.60;74.40
47813;DHT22;34221;45.296;9.516;2023-02-08T01:06:36;1.60;74.30
47813;DHT22;34221;45.296;9.516;2023-02-08T01:06:51;1.60;74.30
47813;DHT22;34221;45.296;9.516;2023-02-08T01:07:06;1.60;74.30
47813;DHT22;34221;45.296;9.516;2023-02-08T01:07:21;1.60;74.40
47813;DHT22;34221;45.296;9.516;2023-02-08T01:07:36;1.60;74.40
47813;DHT22;34221;45.296;9.516;2023-02-08T01:07:52;1.60;74.50
47813;DHT22;34221;45.296;9.516;2023-02-08T01:08:07;1.60;74.40
47813;DHT22;34221;45.296;9.516;2023-02-08T01:08:22;1.60;74.40
47813;DHT22;34221;45.296;9.516;2023-02-08T01:08:37;1.60;75.00
47813;DHT22;34221;45.296;9.516;2023-02-08T01:08:52;1.60;74.30
47813;DHT22;34221;45.296;9.516;2023-02-08T01:09:06;1.60;74.30
47813;DHT22;34221;45.296;9.516;2023-02-08T01:09:22;1.60;74.40
47813;DHT22;34221;45.296;9.516;2023-02-08T01:09:37;1.60;74.50
47813;DHT22;34221;45.296;9.516;2023-02-08T01:09:52;1.60;74.50
47813;DHT22;34221;45.296;9.516;2023-02-08T01:10:08;1.60;75.00
47813;DHT22;34221;45.296;9.516;2023-02-08T01:10:25;1.60;74.40
47813;DHT22;34221;45.296;9.516;2023-02-08T01:10:41;1.60;74.40
47813;DHT22;34221;45.296;9.516;2023-02-08T01:11:11;1.60;74.40
47813;DHT22;34221;45.296;9.516;2023-02-08T01:11:28;1.60;74.50
47813;DHT22;34221;45.296;9.516;2023-02-08T01:11:42;1.60;74.50
47813;DHT22;34221;45.296;9.516;2023-02-08T01:11:57;1.60;74.50
47813;DHT22;34221;45.296;9.516;2023-02-08T01:12:12;1.60;74.50
47813;DHT22;34221;45.296;9.516;2023-02-08T01:12:27;1.60;74.50
47813;DHT22;34221;45.296;9.516;2023-02-08T01:12:42;1.60;74.50
47813;DHT22;34221;45.296;9.516;2023-02-08T01:12:57;1.60;74.60
47813;DHT22;34221;45.296;9.516;2023-02-08T01:13:12;1.60;74.60
47813;DHT22;34221;45.296;9.516;2023-02-08T01:13:27;1.60;74.60
47813;DHT22;34221;45.296;9.516;2023-02-08T01:13:42;1.60;74.70
47813;DHT22;34221;45.296;9.516;2023-02-08T01:13:57;1.60;74.60
47813;DHT22;34221;45.296;9.516;2023-02-08T01:14:12;1.60;74.70
47813;DHT22;34221;45.296;9.516;2023-02-08T01:14:28;1.60;74.70
47813;DHT22;34221;45.296;9.516;2023-02-08T01:14:43;1.60;74.80
47813;DHT22;34221;45.296;9.516;2023-02-08T01:14:58;1.60;74.80
47813;DHT22;34221;45.296;9.516;2023-02-08T01:15:13;1.60;74.70
47813;DHT22;34221;45.296;9.516;2023-02-08T01:15:28;1.60;74.60
47813;DHT22;34221;45.296;9.516;2023-02-08T01:15:43;1.60;74.50
47813;DHT22;34221;45.296;9.516;2023-02-08T01:16:10;1.60;74.60
47813;DHT22;34221;45.296;9.516;2023-02-08T01:16:29;1.60;74.60
47813;DHT22;34221;45.296;9.516;2023-02-08T01:16:47;1.60;74.70
47813;DHT22;34221;45.296;9.516;2023-02-08T01:17:02;1.60;74.60
47813;DHT22;34221;45.296;9.516;2023-02-08T01:17:17;1.60;74.60
47813;DHT22;34221;45.296;9.516;2023-02-08T01:17:32;1.60;74.60
47813;DHT22;34221;45.296;9.516;2023-02-08T01:17:48;1.60;74.70
47813;DHT22;34221;45.296;9.516;2023-02-08T01:18:07;1.60;74.60
47813;DHT22;34221;45.296;9.516;2023-02-08T01:18:22;1.60;74.70
47813;DHT22;34221;45.296;9.516;2023-02-08T01:18:41;1.60;74.70
47813;DHT22;34221;45.296;9.516;2023-02-08T01:18:58;1.60;74.60
47813;DHT22;34221;45.296;9.516;2023-02-08T01:19:15;1.60;74.50
47813;DHT22;34221;45.296;9.516;2023-02-08T01:19:30;1.60;74.50
47813;DHT22;34221;45.296;9.516;2023-02-08T01:19:45;1.60;74.50
47813;DHT22;34221;45.296;9.516;2023-02-08T01:20:00;1.60;75.10
47813;DHT22;34221;45.296;9.516;2023-02-08T01:20:15;1.60;74.50
47813;DHT22;34221;45.296;9.516;2023-02-08T01:20:34;1.60;74.50
47813;DHT22;34221;45.296;9.516;2023-02-08T01:20:51;1.60;74.50
47813;DHT22;34221;45.296;9.516;2023-02-08T01:21:08;1.60;74.50
47813;DHT22;34221;45.296;9.516;2023-02-08T01:21:29;1.60;74.60
47813;DHT22;34221;45.296;9.516;2023-02-08T01:21:48;1.60;74.70
47813;DHT22;34221;45.296;9.516;2023-02-08T01:22:04;1.60;74.70
47813;DHT22;34221;45.296;9.516;2023-02-08T01:22:20;1.60;74.70
47813;DHT22;34221;45.296;9.516;2023-02-08T01:22:35;1.60;74.70
47813;DHT22;34221;45.296;9.516;2023-02-08T01:22:50;1.60;74.70
47813;DHT22;34221;45.296;9.516;2023-02-08T01:23:05;1.60;74.60
47813;DHT22;34221;45.296;9.516;2023-02-08T01:23:20;1.60;74.60
47813;DHT22;34221;45.296;9.516;2023-02-08T01:23:36;1.60;74.50
47813;DHT22;34221;45.296;9.516;2023-02-08T01:23:52;1.60;74.50
47813;DHT22;34221;45.296;9.516;2023-02-08T01:24:07;1.60;74.60
47813;DHT22;34221;45.296;9.516;2023-02-08T01:24:22;1.60;74.60
47813;DHT22;34221;45.296;9.516;2023-02-08T01:24:38;1.60;74.50
47813;DHT22;34221;45.296;9.516;2023-02-08T01:24:53;1.60;74.50
47813;DHT22;34221;45.296;9.516;2023-02-08T01:25:08;1.60;74.50
47813;DHT22;34221;45.296;9.516;2023-02-08T01:25:24;1.60;74.40
47813;DHT22;34221;45.296;9.516;2023-02-08T01:25:39;1.60;74.50
47813;DHT22;34221;45.296;9.516;2023-02-08T01:25:55;1.60;74.50
47813;DHT22;34221;45.296;9.516;2023-02-08T01:26:11;1.60;75.20
47813;DHT22;34221;45.296;9.516;2023-02-08T01:26:26;1.60;74.60
47813;DHT22;34221;45.296;9.516;2023-02-08T01:26:42;1.60;74.60
47813;DHT22;34221;45.296;9.516;2023-02-08T01:26:57;1.60;74.50
47813;DHT22;34221;45.296;9.516;2023-02-08T01:27:12;1.60;74.50
47813;DHT22;34221;45.296;9.516;2023-02-08T01:27:27;1.60;74.50
47813;DHT22;34221;45.296;9.516;2023-02-08T01:27:42;1.60;74.40
47813;DHT22;34221;45.296;9.516;2023-02-08T01:27:57;1.60;74.40
47813;DHT22;34221;45.296;9.516;2023-02-08T01:28:12;1.60;74.50
47813;DHT22;34221;45.296;9.516;2023-02-08T01:28:27;1.60;74.50
47813;DHT22;34221;45.296;9.516;2023-02-08T01:28:42;1.60;74.50
47813;DHT22;34221;45.296;9.516;2023-02-08T01:28:58;1.60;74.50
47813;DHT22;34221;45.296;9.516;2023-02-08T01:29:13;1.60;74.50
47813;DHT22;34221;45.296;9.516;2023-02-08T01:29:28;1.60;74.50
47813;DHT22;34221;45.296;9.516;2023-02-08T01:29:43;1.60;74.60
47813;DHT22;34221;45.296;9.516;2023-02-08T01:29:58;1.60;74.60
47813;DHT22;34221;45.296;9.516;2023-02-08T01:30:13;1.60;74.60
47813;DHT22;34221;45.296;9.516;2023-02-08T01:30:27;1.60;74.60
47813;DHT22;34221;45.296;9.516;2023-02-08T01:30:43;1.60;74.60
47813;DHT22;34221;45.296;9.516;2023-02-08T01:30:58;1.60;74.50
47813;DHT22;34221;45.296;9.516;2023-02-08T01:31:16;1.60;74.50
47813;DHT22;34221;45.296;9.516;2023-02-08T01:31:36;1.60;74.40
47813;DHT22;34221;45.296;9.516;2023-02-08T01:31:52;1.60;74.40
47813;DHT22;34221;45.296;9.516;2023-02-08T01:32:07;1.60;74.40
47813;DHT22;34221;45.296;9.516;2023-02-08T01:32:22;1.60;74.30
47813;DHT22;34221;45.296;9.516;2023-02-08T01:32:36;1.60;74.40
47813;DHT22;34221;45.296;9.516;2023-02-08T01:32:51;1.60;74.40
47813;DHT22;34221;45.296;9.516;2023-02-08T01:33:06;1.60;74.50
47813;DHT22;34221;45.296;9.516;2023-02-08T01:33:21;1.60;74.50
47813;DHT22;34221;45.296;9.516;2023-02-08T01:33:37;1.60;74.60
47813;DHT22;34221;45.296;9.516;2023-02-08T01:33:52;1.60;74.60
47813;DHT22;34221;45.296;9.516;2023-02-08T01:34:08;1.60;74.60
47813;DHT22;34221;45.296;9.516;2023-02-08T01:34:24;1.60;74.60
47813;DHT22;34221;45.296;9.516;2023-02-08T01:34:39;1.50;74.50
47813;DHT22;34221;45.296;9.516;2023-02-08T01:34:53;1.60;74.60
47813;DHT22;34221;45.296;9.516;2023-02-08T01:35:08;1.60;74.60
47813;DHT22;34221;45.296;9.516;2023-02-08T01:35:25;1.60;74.60
47813;DHT22;34221;45.296;9.516;2023-02-08T01:35:40;1.50;74.60
47813;DHT22;34221;45.296;9.516;2023-02-08T01:35:55;1.50;74.60
47813;DHT22;34221;45.296;9.516;2023-02-08T01:36:10;1.60;74.70
47813;DHT22;34221;45.296;9.516;2023-02-08T01:36:26;1.50;74.80
47813;DHT22;34221;45.296;9.516;2023-02-08T01:36:42;1.50;74.80
47813;DHT22;34221;45.296;9.516;2023-02-08T01:36:57;1.50;74.80
47813;DHT22;34221;45.296;9.516;2023-02-08T01:37:12;1.50;74.90
47813;DHT22;34221;45.296;9.516;2023-02-08T01:37:27;1.50;74.90
47813;DHT22;34221;45.296;9.516;2023-02-08T01:37:42;1.50;74.90
47813;DHT22;34221;45.296;9.516;2023-02-08T01:37:57;1.50;74.90
47813;DHT22;34221;45.296;9.516;2023-02-08T01:38:12;1.50;74.90
47813;DHT22;34221;45.296;9.516;2023-02-08T01:38:27;1.50;74.90
47813;DHT22;34221;45.296;9.516;2023-02-08T01:38:43;1.50;75.00
47813;DHT22;34221;45.296;9.516;2023-02-08T01:38:58;1.50;74.90
47813;DHT22;34221;45.296;9.516;2023-02-08T01:39:13;1.50;75.00
47813;DHT22;34221;45.296;9.516;2023-02-08T01:39:28;1.50;75.10
47813;DHT22;34221;45.296;9.516;2023-02-08T01:39:43;1.50;75.10
47813;DHT22;34221;45.296;9.516;2023-02-08T01:39:58;1.50;75.10